sensor_id;sensor_type;location;lat;lon;timestamp;P1;durP1;ratioP1;P2;durP2;ratioP2
30048;SDS011;16879;50.852;15.602;2023-05-25T00:02:18;17.20;;;11.75;;
30048;SDS011;16879;50.852;15.602;2023-05-25T00:04:48;18.88;;;12.70;;
30048;SDS011;16879;50.852;15.602;2023-05-25T00:07:14;18.13;;;12.25;;
30048;SDS011;16879;50.852;15.602;2023-05-25T00:09:41;19.55;;;11.35;;
30048;SDS011;16879;50.852;15.602;2023-05-25T00:12:08;14.70;;;11.48;;
30048;SDS011;16879;50.852;15.602;2023-05-25T00:14:35;15.18;;;10.77;;
30048;SDS011;16879;50.852;15.602;2023-05-25T00:17:01;18.85;;;12.18;;
30048;SDS011;16879;50.852;15.602;2023-05-25T00:19:28;32.72;;;11.95;;
30048;SDS011;16879;50.852;15.602;2023-05-25T00:21:56;19.63;;;11.52;;
30048;SDS011;16879;50.852;15.602;2023-05-25T00:24:26;14.43;;;11.55;;
30048;SDS011;16879;50.852;15.602;2023-05-25T00:26:52;23.02;;;11.98;;
30048;SDS011;16879;50.852;15.602;2023-05-25T00:29:18;22.60;;;14.02;;
30048;SDS011;16879;50.852;15.602;2023-05-25T00:31:44;17.45;;;11.45;;
30048;SDS011;16879;50.852;15.602;2023-05-25T00:34:10;18.05;;;12.13;;
30048;SDS011;16879;50.852;15.602;2023-05-25T00:36:36;15.93;;;11.88;;
30048;SDS011;16879;50.852;15.602;2023-05-25T00:39:03;17.88;;;11.07;;
30048;SDS011;16879;50.852;15.602;2023-05-25T00:41:29;17.40;;;12.18;;
30048;SDS011;16879;50.852;15.602;2023-05-25T00:43:56;18.13;;;12.05;;
30048;SDS011;16879;50.852;15.602;2023-05-25T00:46:22;14.30;;;10.68;;
30048;SDS011;16879;50.852;15.602;2023-05-25T00:48:50;21.55;;;11.45;;
30048;SDS011;16879;50.852;15.602;2023-05-25T00:51:17;12.57;;;10.68;;
30048;SDS011;16879;50.852;15.602;2023-05-25T00:53:44;14.90;;;11.02;;
30048;SDS011;16879;50.852;15.602;2023-05-25T00:56:13;19.92;;;13.70;;
30048;SDS011;16879;50.852;15.602;2023-05-25T00:58:44;16.17;;;12.07;;
30048;SDS011;16879;50.852;15.602;2023-05-25T01:01:11;15.88;;;11.07;;
30048;SDS011;16879;50.852;15.602;2023-05-25T01:03:40;18.50;;;12.07;;
30048;SDS011;16879;50.852;15.602;2023-05-25T01:06:13;16.67;;;10.10;;
30048;SDS011;16879;50.852;15.602;2023-05-25T01:08:41;21.85;;;11.05;;
30048;SDS011;16879;50.852;15.602;2023-05-25T01:11:10;19.10;;;10.50;;
30048;SDS011;16879;50.852;15.602;2023-05-25T01:13:37;13.38;;;9.48;;
30048;SDS011;16879;50.852;15.602;2023-05-25T01:16:04;15.70;;;10.90;;
30048;SDS011;16879;50.852;15.602;2023-05-25T01:18:31;19.63;;;10.82;;
30048;SDS011;16879;50.852;15.602;2023-05-25T01:23:25;16.48;;;10.40;;
30048;SDS011;16879;50.852;15.602;2023-05-25T01:25:52;17.52;;;11.38;;
30048;SDS011;16879;50.852;15.602;2023-05-25T01:28:22;16.80;;;10.27;;
30048;SDS011;16879;50.852;15.602;2023-05-25T01:30:50;15.80;;;10.30;;
30048;SDS011;16879;50.852;15.602;2023-05-25T01:33:17;17.15;;;10.30;;
30048;SDS011;16879;50.852;15.602;2023-05-25T01:35:43;19.90;;;11.27;;
30048;SDS011;16879;50.852;15.602;2023-05-25T01:38:11;12.70;;;9.00;;
30048;SDS011;16879;50.852;15.602;2023-05-25T01:40:37;15.27;;;10.20;;
30048;SDS011;16879;50.852;15.602;2023-05-25T01:43:03;14.55;;;9.75;;
30048;SDS011;16879;50.852;15.602;2023-05-25T01:45:30;12.32;;;9.57;;
30048;SDS011;16879;50.852;15.602;2023-05-25T01:53:22;13.90;;;10.00;;
30048;SDS011;16879;50.852;15.602;2023-05-25T01:55:54;12.77;;;9.40;;
30048;SDS011;16879;50.852;15.602;2023-05-25T01:58:25;17.43;;;9.63;;
30048;SDS011;16879;50.852;15.602;2023-05-25T02:03:20;14.93;;;10.20;;
30048;SDS011;16879;50.852;15.602;2023-05-25T02:05:46;14.30;;;9.93;;
30048;SDS011;16879;50.852;15.602;2023-05-25T02:08:12;17.40;;;10.45;;
30048;SDS011;16879;50.852;15.602;2023-05-25T02:10:39;18.02;;;10.48;;
30048;SDS011;16879;50.852;15.602;2023-05-25T02:13:05;15.05;;;11.75;;
30048;SDS011;16879;50.852;15.602;2023-05-25T02:15:31;15.10;;;10.65;;
30048;SDS011;16879;50.852;15.602;2023-05-25T02:17:58;16.63;;;9.63;;
30048;SDS011;16879;50.852;15.602;2023-05-25T02:20:25;15.95;;;11.13;;
30048;SDS011;16879;50.852;15.602;2023-05-25T02:22:52;17.17;;;9.98;;
30048;SDS011;16879;50.852;15.602;2023-05-25T02:25:18;13.18;;;8.60;;
30048;SDS011;16879;50.852;15.602;2023-05-25T02:27:44;16.73;;;9.40;;
30048;SDS011;16879;50.852;15.602;2023-05-25T02:30:10;17.60;;;9.50;;
30048;SDS011;16879;50.852;15.602;2023-05-25T02:32:37;16.58;;;10.80;;
30048;SDS011;16879;50.852;15.602;2023-05-25T02:35:03;13.82;;;10.73;;
30048;SDS011;16879;50.852;15.602;2023-05-25T02:37:29;15.45;;;10.07;;
30048;SDS011;16879;50.852;15.602;2023-05-25T02:39:55;17.10;;;10.27;;
30048;SDS011;16879;50.852;15.602;2023-05-25T02:42:21;14.77;;;10.77;;
30048;SDS011;16879;50.852;15.602;2023-05-25T02:44:47;18.50;;;10.50;;
30048;SDS011;16879;50.852;15.602;2023-05-25T02:47:14;13.93;;;9.70;;
30048;SDS011;16879;50.852;15.602;2023-05-25T02:49:40;15.48;;;11.45;;
30048;SDS011;16879;50.852;15.602;2023-05-25T02:52:06;12.30;;;9.48;;
30048;SDS011;16879;50.852;15.602;2023-05-25T02:54:33;13.85;;;10.43;;
30048;SDS011;16879;50.852;15.602;2023-05-25T02:57:00;17.65;;;10.63;;
30048;SDS011;16879;50.852;15.602;2023-05-25T02:59:27;14.57;;;10.25;;
30048;SDS011;16879;50.852;15.602;2023-05-25T03:01:53;21.95;;;11.18;;
30048;SDS011;16879;50.852;15.602;2023-05-25T03:06:46;16.83;;;9.65;;
30048;SDS011;16879;50.852;15.602;2023-05-25T03:09:12;18.27;;;11.63;;
30048;SDS011;16879;50.852;15.602;2023-05-25T03:11:38;13.23;;;9.48;;
30048;SDS011;16879;50.852;15.602;2023-05-25T03:14:04;13.68;;;9.05;;
30048;SDS011;16879;50.852;15.602;2023-05-25T03:16:31;12.98;;;9.57;;
30048;SDS011;16879;50.852;15.602;2023-05-25T03:19:02;11.35;;;10.15;;
30048;SDS011;16879;50.852;15.602;2023-05-25T03:21:29;19.13;;;10.18;;
30048;SDS011;16879;50.852;15.602;2023-05-25T03:23:56;16.70;;;10.32;;
30048;SDS011;16879;50.852;15.602;2023-05-25T03:26:23;16.75;;;10.80;;
30048;SDS011;16879;50.852;15.602;2023-05-25T03:28:53;15.98;;;9.98;;
30048;SDS011;16879;50.852;15.602;2023-05-25T03:31:19;12.68;;;9.55;;
30048;SDS011;16879;50.852;15.602;2023-05-25T03:33:45;17.38;;;11.65;;
30048;SDS011;16879;50.852;15.602;2023-05-25T03:36:11;13.00;;;9.98;;
30048;SDS011;16879;50.852;15.602;2023-05-25T03:38:41;17.13;;;11.68;;
30048;SDS011;16879;50.852;15.602;2023-05-25T03:41:07;13.90;;;9.43;;
30048;SDS011;16879;50.852;15.602;2023-05-25T03:43:33;16.05;;;10.90;;
30048;SDS011;16879;50.852;15.602;2023-05-25T03:45:59;16.50;;;10.45;;
30048;SDS011;16879;50.852;15.602;2023-05-25T03:48:25;15.40;;;10.93;;
30048;SDS011;16879;50.852;15.602;2023-05-25T03:50:52;15.75;;;10.27;;
30048;SDS011;16879;50.852;15.602;2023-05-25T03:53:18;20.55;;;10.90;;
30048;SDS011;16879;50.852;15.602;2023-05-25T03:55:44;12.50;;;10.10;;
30048;SDS011;16879;50.852;15.602;2023-05-25T03:58:13;14.25;;;10.07;;
30048;SDS011;16879;50.852;15.602;2023-05-25T04:00:42;14.85;;;10.50;;
30048;SDS011;16879;50.852;15.602;2023-05-25T04:03:08;11.88;;;9.88;;
30048;SDS011;16879;50.852;15.602;2023-05-25T04:05:34;12.90;;;8.75;;
30048;SDS011;16879;50.852;15.602;2023-05-25T04:08:01;16.35;;;10.57;;
30048;SDS011;16879;50.852;15.602;2023-05-25T04:10:27;15.88;;;9.73;;
30048;SDS011;16879;50.852;15.602;2023-05-25T04:12:53;12.15;;;8.93;;
30048;SDS011;16879;50.852;15.602;2023-05-25T04:15:23;12.95;;;10.15;;
30048;SDS011;16879;50.852;15.602;2023-05-25T04:17:50;15.68;;;9.65;;
30048;SDS011;16879;50.852;15.602;2023-05-25T04:20:16;21.48;;;10.63;;
30048;SDS011;16879;50.852;15.602;2023-05-25T04:22:42;17.15;;;11.07;;
30048;SDS011;16879;50.852;15.602;2023-05-25T04:25:09;15.40;;;11.40;;
30048;SDS011;16879;50.852;15.602;2023-05-25T04:27:35;16.63;;;10.80;;
30048;SDS011;16879;50.852;15.602;2023-05-25T04:30:02;17.02;;;10.75;;
30048;SDS011;16879;50.852;15.602;2023-05-25T04:32:28;23.20;;;12.90;;
30048;SDS011;16879;50.852;15.602;2023-05-25T04:34:56;14.25;;;10.82;;
30048;SDS011;16879;50.852;15.602;2023-05-25T04:37:23;20.02;;;12.82;;
30048;SDS011;16879;50.852;15.602;2023-05-25T04:39:51;17.98;;;12.45;;
30048;SDS011;16879;50.852;15.602;2023-05-25T04:42:18;13.57;;;10.25;;
30048;SDS011;16879;50.852;15.602;2023-05-25T04:44:48;11.82;;;9.77;;
30048;SDS011;16879;50.852;15.602;2023-05-25T04:47:15;21.60;;;11.60;;
30048;SDS011;16879;50.852;15.602;2023-05-25T04:49:41;17.80;;;11.60;;
30048;SDS011;16879;50.852;15.602;2023-05-25T04:52:07;17.35;;;10.15;;
30048;SDS011;16879;50.852;15.602;2023-05-25T04:54:33;15.25;;;9.55;;
30048;SDS011;16879;50.852;15.602;2023-05-25T04:57:00;18.80;;;11.30;;
30048;SDS011;16879;50.852;15.602;2023-05-25T04:59:27;14.77;;;10.43;;
30048;SDS011;16879;50.852;15.602;2023-05-25T05:01:53;17.33;;;11.38;;
30048;SDS011;16879;50.852;15.602;2023-05-25T05:04:19;16.98;;;10.60;;
30048;SDS011;16879;50.852;15.602;2023-05-25T05:06:45;15.32;;;10.95;;
30048;SDS011;16879;50.852;15.602;2023-05-25T05:09:11;16.48;;;11.20;;
30048;SDS011;16879;50.852;15.602;2023-05-25T05:11:37;16.48;;;11.57;;
30048;SDS011;16879;50.852;15.602;2023-05-25T05:14:04;17.23;;;10.18;;
30048;SDS011;16879;50.852;15.602;2023-05-25T05:16:30;15.88;;;10.20;;
30048;SDS011;16879;50.852;15.602;2023-05-25T05:18:59;21.55;;;11.27;;
30048;SDS011;16879;50.852;15.602;2023-05-25T05:21:26;15.52;;;10.43;;
30048;SDS011;16879;50.852;15.602;2023-05-25T05:23:52;16.25;;;9.65;;
30048;SDS011;16879;50.852;15.602;2023-05-25T05:26:18;13.63;;;11.38;;
30048;SDS011;16879;50.852;15.602;2023-05-25T05:28:45;14.95;;;11.85;;
30048;SDS011;16879;50.852;15.602;2023-05-25T05:31:11;14.18;;;10.48;;
30048;SDS011;16879;50.852;15.602;2023-05-25T05:33:37;14.15;;;9.15;;
30048;SDS011;16879;50.852;15.602;2023-05-25T05:36:03;13.93;;;9.00;;
30048;SDS011;16879;50.852;15.602;2023-05-25T05:38:30;15.38;;;9.95;;
30048;SDS011;16879;50.852;15.602;2023-05-25T05:40:56;13.52;;;9.75;;
30048;SDS011;16879;50.852;15.602;2023-05-25T05:43:22;15.80;;;10.07;;
30048;SDS011;16879;50.852;15.602;2023-05-25T05:45:48;11.80;;;8.88;;
30048;SDS011;16879;50.852;15.602;2023-05-25T05:48:14;14.38;;;9.50;;
30048;SDS011;16879;50.852;15.602;2023-05-25T05:50:40;13.63;;;7.32;;
30048;SDS011;16879;50.852;15.602;2023-05-25T05:53:07;11.93;;;7.15;;
30048;SDS011;16879;50.852;15.602;2023-05-25T05:55:34;11.65;;;6.13;;
30048;SDS011;16879;50.852;15.602;2023-05-25T05:58:00;9.35;;;5.50;;
30048;SDS011;16879;50.852;15.602;2023-05-25T06:00:26;14.35;;;6.22;;
30048;SDS011;16879;50.852;15.602;2023-05-25T06:05:18;10.55;;;5.05;;
30048;SDS011;16879;50.852;15.602;2023-05-25T06:07:45;14.60;;;5.85;;
30048;SDS011;16879;50.852;15.602;2023-05-25T06:10:11;7.68;;;4.28;;
30048;SDS011;16879;50.852;15.602;2023-05-25T06:12:37;10.63;;;4.55;;
30048;SDS011;16879;50.852;15.602;2023-05-25T06:15:03;10.48;;;5.10;;
30048;SDS011;16879;50.852;15.602;2023-05-25T06:17:30;14.20;;;5.18;;
30048;SDS011;16879;50.852;15.602;2023-05-25T06:19:56;10.85;;;5.60;;
30048;SDS011;16879;50.852;15.602;2023-05-25T06:22:22;9.52;;;5.13;;
30048;SDS011;16879;50.852;15.602;2023-05-25T06:24:52;14.25;;;4.82;;
30048;SDS011;16879;50.852;15.602;2023-05-25T06:27:18;10.90;;;4.88;;
30048;SDS011;16879;50.852;15.602;2023-05-25T06:32:10;14.27;;;4.50;;
30048;SDS011;16879;50.852;15.602;2023-05-25T06:34:36;12.95;;;5.50;;
30048;SDS011;16879;50.852;15.602;2023-05-25T06:37:02;14.15;;;5.47;;
30048;SDS011;16879;50.852;15.602;2023-05-25T06:39:29;9.70;;;5.22;;
30048;SDS011;16879;50.852;15.602;2023-05-25T06:41:55;9.18;;;4.72;;
30048;SDS011;16879;50.852;15.602;2023-05-25T06:44:21;15.75;;;5.70;;
30048;SDS011;16879;50.852;15.602;2023-05-25T06:46:51;7.38;;;5.15;;
30048;SDS011;16879;50.852;15.602;2023-05-25T06:49:17;13.23;;;5.22;;
30048;SDS011;16879;50.852;15.602;2023-05-25T06:51:43;12.57;;;5.30;;
30048;SDS011;16879;50.852;15.602;2023-05-25T06:54:10;11.55;;;5.90;;
30048;SDS011;16879;50.852;15.602;2023-05-25T06:56:38;15.73;;;6.15;;
30048;SDS011;16879;50.852;15.602;2023-05-25T06:59:05;10.57;;;5.07;;
30048;SDS011;16879;50.852;15.602;2023-05-25T07:01:31;16.50;;;6.00;;
30048;SDS011;16879;50.852;15.602;2023-05-25T07:03:57;13.57;;;4.72;;
30048;SDS011;16879;50.852;15.602;2023-05-25T07:06:24;10.52;;;5.60;;
30048;SDS011;16879;50.852;15.602;2023-05-25T07:08:49;7.80;;;4.20;;
30048;SDS011;16879;50.852;15.602;2023-05-25T07:11:16;12.45;;;5.07;;
30048;SDS011;16879;50.852;15.602;2023-05-25T07:13:44;13.57;;;5.10;;
30048;SDS011;16879;50.852;15.602;2023-05-25T07:16:11;11.57;;;4.90;;
30048;SDS011;16879;50.852;15.602;2023-05-25T07:18:40;17.30;;;5.82;;
30048;SDS011;16879;50.852;15.602;2023-05-25T07:21:06;15.02;;;5.70;;
30048;SDS011;16879;50.852;15.602;2023-05-25T07:23:34;12.70;;;5.78;;
30048;SDS011;16879;50.852;15.602;2023-05-25T07:26:01;6.85;;;4.60;;
30048;SDS011;16879;50.852;15.602;2023-05-25T07:28:30;12.60;;;5.20;;
30048;SDS011;16879;50.852;15.602;2023-05-25T07:30:56;9.50;;;4.07;;
30048;SDS011;16879;50.852;15.602;2023-05-25T07:33:21;9.15;;;4.35;;
30048;SDS011;16879;50.852;15.602;2023-05-25T07:35:47;12.85;;;5.50;;
30048;SDS011;16879;50.852;15.602;2023-05-25T07:38:15;10.75;;;4.93;;
30048;SDS011;16879;50.852;15.602;2023-05-25T07:40:42;12.40;;;4.97;;
30048;SDS011;16879;50.852;15.602;2023-05-25T07:43:08;12.25;;;4.72;;
30048;SDS011;16879;50.852;15.602;2023-05-25T07:45:34;12.80;;;5.28;;
30048;SDS011;16879;50.852;15.602;2023-05-25T07:48:00;15.18;;;6.00;;
30048;SDS011;16879;50.852;15.602;2023-05-25T07:50:26;6.97;;;3.40;;
30048;SDS011;16879;50.852;15.602;2023-05-25T07:52:52;9.35;;;4.60;;
30048;SDS011;16879;50.852;15.602;2023-05-25T07:55:18;12.15;;;5.22;;
30048;SDS011;16879;50.852;15.602;2023-05-25T07:57:44;9.52;;;5.07;;
30048;SDS011;16879;50.852;15.602;2023-05-25T08:00:10;16.50;;;6.75;;
30048;SDS011;16879;50.852;15.602;2023-05-25T08:02:36;9.05;;;5.13;;
30048;SDS011;16879;50.852;15.602;2023-05-25T08:05:03;13.27;;;5.43;;
30048;SDS011;16879;50.852;15.602;2023-05-25T08:07:31;8.43;;;4.18;;
30048;SDS011;16879;50.852;15.602;2023-05-25T08:09:57;10.82;;;4.50;;
30048;SDS011;16879;50.852;15.602;2023-05-25T08:12:23;13.55;;;5.57;;
30048;SDS011;16879;50.852;15.602;2023-05-25T08:14:49;11.82;;;4.43;;
30048;SDS011;16879;50.852;15.602;2023-05-25T08:17:15;13.32;;;5.55;;
30048;SDS011;16879;50.852;15.602;2023-05-25T08:19:42;12.75;;;4.82;;
30048;SDS011;16879;50.852;15.602;2023-05-25T08:22:08;6.85;;;4.13;;
30048;SDS011;16879;50.852;15.602;2023-05-25T08:24:35;9.15;;;5.07;;
30048;SDS011;16879;50.852;15.602;2023-05-25T08:27:01;12.07;;;5.05;;
30048;SDS011;16879;50.852;15.602;2023-05-25T08:29:27;11.68;;;5.00;;
30048;SDS011;16879;50.852;15.602;2023-05-25T08:31:53;7.50;;;4.43;;
30048;SDS011;16879;50.852;15.602;2023-05-25T08:34:20;9.02;;;4.93;;
30048;SDS011;16879;50.852;15.602;2023-05-25T08:36:45;10.73;;;5.38;;
30048;SDS011;16879;50.852;15.602;2023-05-25T08:39:12;7.70;;;4.47;;
30048;SDS011;16879;50.852;15.602;2023-05-25T08:41:40;10.98;;;4.60;;
30048;SDS011;16879;50.852;15.602;2023-05-25T08:44:10;8.88;;;4.68;;
30048;SDS011;16879;50.852;15.602;2023-05-25T08:46:38;9.75;;;4.80;;
30048;SDS011;16879;50.852;15.602;2023-05-25T08:49:11;8.73;;;4.05;;
30048;SDS011;16879;50.852;15.602;2023-05-25T08:51:38;8.15;;;4.40;;
30048;SDS011;16879;50.852;15.602;2023-05-25T08:54:08;8.98;;;4.90;;
30048;SDS011;16879;50.852;15.602;2023-05-25T08:56:44;11.20;;;4.95;;
30048;SDS011;16879;50.852;15.602;2023-05-25T08:59:15;8.65;;;4.57;;
30048;SDS011;16879;50.852;15.602;2023-05-25T09:01:45;12.98;;;5.03;;
30048;SDS011;16879;50.852;15.602;2023-05-25T09:04:21;10.48;;;4.50;;
30048;SDS011;16879;50.852;15.602;2023-05-25T09:06:48;14.38;;;4.60;;
30048;SDS011;16879;50.852;15.602;2023-05-25T09:09:14;15.15;;;6.15;;
30048;SDS011;16879;50.852;15.602;2023-05-25T09:11:41;10.82;;;4.68;;
30048;SDS011;16879;50.852;15.602;2023-05-25T09:14:08;8.13;;;4.88;;
30048;SDS011;16879;50.852;15.602;2023-05-25T09:16:36;7.90;;;4.28;;
30048;SDS011;16879;50.852;15.602;2023-05-25T09:19:02;11.57;;;5.18;;
30048;SDS011;16879;50.852;15.602;2023-05-25T09:21:28;16.55;;;6.20;;
30048;SDS011;16879;50.852;15.602;2023-05-25T09:23:54;8.63;;;4.63;;
30048;SDS011;16879;50.852;15.602;2023-05-25T09:26:20;9.18;;;4.78;;
30048;SDS011;16879;50.852;15.602;2023-05-25T09:28:46;6.50;;;4.00;;
30048;SDS011;16879;50.852;15.602;2023-05-25T09:31:13;11.50;;;4.32;;
30048;SDS011;16879;50.852;15.602;2023-05-25T09:33:39;9.65;;;4.90;;
30048;SDS011;16879;50.852;15.602;2023-05-25T09:36:05;8.85;;;4.32;;
30048;SDS011;16879;50.852;15.602;2023-05-25T09:38:32;10.48;;;4.50;;
30048;SDS011;16879;50.852;15.602;2023-05-25T09:40:58;7.03;;;3.92;;
30048;SDS011;16879;50.852;15.602;2023-05-25T09:43:24;8.10;;;3.40;;
30048;SDS011;16879;50.852;15.602;2023-05-25T09:45:51;10.15;;;4.57;;
30048;SDS011;16879;50.852;15.602;2023-05-25T09:48:17;13.75;;;5.18;;
30048;SDS011;16879;50.852;15.602;2023-05-25T09:50:45;6.28;;;4.35;;
30048;SDS011;16879;50.852;15.602;2023-05-25T09:53:11;6.60;;;3.58;;
30048;SDS011;16879;50.852;15.602;2023-05-25T09:55:41;9.98;;;3.60;;
30048;SDS011;16879;50.852;15.602;2023-05-25T09:58:06;10.95;;;4.30;;
30048;SDS011;16879;50.852;15.602;2023-05-25T10:00:37;5.07;;;3.83;;
30048;SDS011;16879;50.852;15.602;2023-05-25T10:03:03;8.73;;;4.05;;
30048;SDS011;16879;50.852;15.602;2023-05-25T10:05:31;7.70;;;3.95;;
30048;SDS011;16879;50.852;15.602;2023-05-25T10:07:57;8.52;;;4.20;;
30048;SDS011;16879;50.852;15.602;2023-05-25T10:10:25;15.82;;;4.20;;
30048;SDS011;16879;50.852;15.602;2023-05-25T10:12:52;6.95;;;4.20;;
30048;SDS011;16879;50.852;15.602;2023-05-25T10:15:19;9.38;;;3.85;;
30048;SDS011;16879;50.852;15.602;2023-05-25T10:17:53;10.73;;;4.03;;
30048;SDS011;16879;50.852;15.602;2023-05-25T10:20:20;10.00;;;4.43;;
30048;SDS011;16879;50.852;15.602;2023-05-25T10:25:25;14.40;;;5.07;;
30048;SDS011;16879;50.852;15.602;2023-05-25T10:30:56;8.85;;;4.40;;
30048;SDS011;16879;50.852;15.602;2023-05-25T10:33:23;7.30;;;3.90;;
30048;SDS011;16879;50.852;15.602;2023-05-25T10:35:50;12.45;;;4.03;;
30048;SDS011;16879;50.852;15.602;2023-05-25T10:38:18;8.48;;;4.32;;
30048;SDS011;16879;50.852;15.602;2023-05-25T10:40:45;9.02;;;3.83;;
30048;SDS011;16879;50.852;15.602;2023-05-25T10:43:12;8.15;;;3.83;;
30048;SDS011;16879;50.852;15.602;2023-05-25T10:45:39;9.32;;;4.25;;
30048;SDS011;16879;50.852;15.602;2023-05-25T10:48:06;10.00;;;4.15;;
30048;SDS011;16879;50.852;15.602;2023-05-25T10:50:35;8.80;;;4.50;;
30048;SDS011;16879;50.852;15.602;2023-05-25T10:53:04;5.20;;;3.75;;
30048;SDS011;16879;50.852;15.602;2023-05-25T10:56:15;10.82;;;5.20;;
30048;SDS011;16879;50.852;15.602;2023-05-25T10:58:17;7.28;;;4.07;;
30048;SDS011;16879;50.852;15.602;2023-05-25T11:06:15;7.72;;;4.35;;
30048;SDS011;16879;50.852;15.602;2023-05-25T11:08:55;9.68;;;4.28;;
30048;SDS011;16879;50.852;15.602;2023-05-25T11:17:14;5.95;;;3.50;;
30048;SDS011;16879;50.852;15.602;2023-05-25T11:19:58;9.10;;;3.78;;
30048;SDS011;16879;50.852;15.602;2023-05-25T11:22:34;7.32;;;4.13;;
30048;SDS011;16879;50.852;15.602;2023-05-25T11:25:02;6.88;;;4.00;;
30048;SDS011;16879;50.852;15.602;2023-05-25T11:27:31;7.47;;;3.67;;
30048;SDS011;16879;50.852;15.602;2023-05-25T11:29:58;5.38;;;4.05;;
30048;SDS011;16879;50.852;15.602;2023-05-25T11:32:25;6.30;;;3.80;;
30048;SDS011;16879;50.852;15.602;2023-05-25T11:34:52;10.02;;;3.92;;
30048;SDS011;16879;50.852;15.602;2023-05-25T11:37:19;9.35;;;4.07;;
30048;SDS011;16879;50.852;15.602;2023-05-25T11:39:49;8.38;;;4.30;;
30048;SDS011;16879;50.852;15.602;2023-05-25T11:42:21;6.18;;;4.53;;
30048;SDS011;16879;50.852;15.602;2023-05-25T11:44:47;7.28;;;5.15;;
30048;SDS011;16879;50.852;15.602;2023-05-25T11:47:14;8.77;;;4.82;;
30048;SDS011;16879;50.852;15.602;2023-05-25T11:49:44;10.68;;;5.15;;
30048;SDS011;16879;50.852;15.602;2023-05-25T11:52:17;10.30;;;4.70;;
30048;SDS011;16879;50.852;15.602;2023-05-25T11:54:44;8.98;;;4.40;;
30048;SDS011;16879;50.852;15.602;2023-05-25T11:57:23;8.05;;;4.30;;
30048;SDS011;16879;50.852;15.602;2023-05-25T11:59:50;8.65;;;4.32;;
30048;SDS011;16879;50.852;15.602;2023-05-25T12:02:20;10.38;;;4.00;;
30048;SDS011;16879;50.852;15.602;2023-05-25T12:04:58;5.80;;;3.97;;
30048;SDS011;16879;50.852;15.602;2023-05-25T12:07:43;8.57;;;4.57;;
30048;SDS011;16879;50.852;15.602;2023-05-25T12:10:13;6.93;;;4.00;;
30048;SDS011;16879;50.852;15.602;2023-05-25T12:12:44;11.18;;;4.60;;
30048;SDS011;16879;50.852;15.602;2023-05-25T12:15:14;9.55;;;4.95;;
30048;SDS011;16879;50.852;15.602;2023-05-25T12:17:42;5.57;;;4.55;;
30048;SDS011;16879;50.852;15.602;2023-05-25T12:20:09;8.55;;;4.47;;
30048;SDS011;16879;50.852;15.602;2023-05-25T12:22:36;7.25;;;4.38;;
30048;SDS011;16879;50.852;15.602;2023-05-25T12:25:03;7.75;;;4.88;;
30048;SDS011;16879;50.852;15.602;2023-05-25T12:27:31;7.60;;;4.00;;
30048;SDS011;16879;50.852;15.602;2023-05-25T12:29:57;12.50;;;4.85;;
30048;SDS011;16879;50.852;15.602;2023-05-25T12:32:23;10.27;;;4.25;;
30048;SDS011;16879;50.852;15.602;2023-05-25T12:34:50;7.55;;;4.70;;
30048;SDS011;16879;50.852;15.602;2023-05-25T12:37:19;8.15;;;4.65;;
30048;SDS011;16879;50.852;15.602;2023-05-25T12:39:46;5.78;;;4.32;;
30048;SDS011;16879;50.852;15.602;2023-05-25T12:42:12;4.80;;;3.60;;
30048;SDS011;16879;50.852;15.602;2023-05-25T12:44:42;6.78;;;3.90;;
30048;SDS011;16879;50.852;15.602;2023-05-25T12:47:10;8.57;;;4.55;;
30048;SDS011;16879;50.852;15.602;2023-05-25T12:49:37;9.07;;;5.60;;
30048;SDS011;16879;50.852;15.602;2023-05-25T12:52:04;8.10;;;4.15;;
30048;SDS011;16879;50.852;15.602;2023-05-25T12:54:51;7.32;;;4.82;;
30048;SDS011;16879;50.852;15.602;2023-05-25T12:57:16;7.82;;;4.45;;
30048;SDS011;16879;50.852;15.602;2023-05-25T12:59:43;7.65;;;4.70;;
30048;SDS011;16879;50.852;15.602;2023-05-25T13:02:10;8.23;;;5.00;;
30048;SDS011;16879;50.852;15.602;2023-05-25T13:04:37;7.57;;;4.93;;
30048;SDS011;16879;50.852;15.602;2023-05-25T13:07:04;8.25;;;4.90;;
30048;SDS011;16879;50.852;15.602;2023-05-25T13:09:30;12.63;;;5.40;;
30048;SDS011;16879;50.852;15.602;2023-05-25T13:11:57;7.78;;;5.10;;
30048;SDS011;16879;50.852;15.602;2023-05-25T13:14:24;16.40;;;5.43;;
30048;SDS011;16879;50.852;15.602;2023-05-25T13:16:51;6.63;;;4.90;;
30048;SDS011;16879;50.852;15.602;2023-05-25T13:19:18;9.00;;;4.80;;
30048;SDS011;16879;50.852;15.602;2023-05-25T13:21:45;9.85;;;4.85;;
30048;SDS011;16879;50.852;15.602;2023-05-25T13:24:13;9.32;;;4.95;;
30048;SDS011;16879;50.852;15.602;2023-05-25T13:26:40;7.70;;;5.60;;
30048;SDS011;16879;50.852;15.602;2023-05-25T13:29:09;8.10;;;4.95;;
30048;SDS011;16879;50.852;15.602;2023-05-25T13:31:35;9.27;;;5.07;;
30048;SDS011;16879;50.852;15.602;2023-05-25T13:34:01;9.27;;;4.47;;
30048;SDS011;16879;50.852;15.602;2023-05-25T13:36:27;7.97;;;5.20;;
30048;SDS011;16879;50.852;15.602;2023-05-25T13:38:54;8.35;;;5.30;;
30048;SDS011;16879;50.852;15.602;2023-05-25T13:41:20;8.23;;;5.50;;
30048;SDS011;16879;50.852;15.602;2023-05-25T13:43:46;8.77;;;5.32;;
30048;SDS011;16879;50.852;15.602;2023-05-25T13:46:13;10.20;;;5.65;;
30048;SDS011;16879;50.852;15.602;2023-05-25T13:48:39;6.80;;;4.68;;
30048;SDS011;16879;50.852;15.602;2023-05-25T13:51:11;6.40;;;4.90;;
30048;SDS011;16879;50.852;15.602;2023-05-25T13:53:37;6.88;;;5.03;;
30048;SDS011;16879;50.852;15.602;2023-05-25T13:56:03;7.30;;;5.25;;
30048;SDS011;16879;50.852;15.602;2023-05-25T13:58:30;8.32;;;5.15;;
30048;SDS011;16879;50.852;15.602;2023-05-25T14:00:56;8.90;;;5.60;;
30048;SDS011;16879;50.852;15.602;2023-05-25T14:03:22;8.35;;;5.32;;
30048;SDS011;16879;50.852;15.602;2023-05-25T14:05:48;9.55;;;5.47;;
30048;SDS011;16879;50.852;15.602;2023-05-25T14:08:14;9.10;;;6.00;;
30048;SDS011;16879;50.852;15.602;2023-05-25T14:10:40;8.57;;;5.22;;
30048;SDS011;16879;50.852;15.602;2023-05-25T14:13:08;10.15;;;6.07;;
30048;SDS011;16879;50.852;15.602;2023-05-25T14:15:34;17.60;;;5.40;;
30048;SDS011;16879;50.852;15.602;2023-05-25T14:18:00;7.38;;;5.20;;
30048;SDS011;16879;50.852;15.602;2023-05-25T14:20:26;7.78;;;5.47;;
30048;SDS011;16879;50.852;15.602;2023-05-25T14:22:52;6.97;;;5.00;;
30048;SDS011;16879;50.852;15.602;2023-05-25T14:25:19;8.48;;;4.82;;
30048;SDS011;16879;50.852;15.602;2023-05-25T14:27:45;9.80;;;5.38;;
30048;SDS011;16879;50.852;15.602;2023-05-25T14:30:11;10.68;;;5.07;;
30048;SDS011;16879;50.852;15.602;2023-05-25T14:32:37;5.95;;;4.55;;
30048;SDS011;16879;50.852;15.602;2023-05-25T14:35:03;10.00;;;5.10;;
30048;SDS011;16879;50.852;15.602;2023-05-25T14:37:30;9.07;;;5.82;;
30048;SDS011;16879;50.852;15.602;2023-05-25T14:39:56;6.18;;;5.53;;
30048;SDS011;16879;50.852;15.602;2023-05-25T14:42:22;8.20;;;5.43;;
30048;SDS011;16879;50.852;15.602;2023-05-25T14:44:48;6.20;;;4.38;;
30048;SDS011;16879;50.852;15.602;2023-05-25T14:47:14;8.07;;;6.07;;
30048;SDS011;16879;50.852;15.602;2023-05-25T14:49:40;5.90;;;5.30;;
30048;SDS011;16879;50.852;15.602;2023-05-25T14:52:07;8.25;;;4.72;;
30048;SDS011;16879;50.852;15.602;2023-05-25T14:54:33;9.23;;;5.10;;
30048;SDS011;16879;50.852;15.602;2023-05-25T14:56:58;9.77;;;5.13;;
30048;SDS011;16879;50.852;15.602;2023-05-25T14:59:26;7.10;;;4.95;;